sensor_id;sensor_type;location;lat;lon;timestamp;P1;durP1;ratioP1;P2;durP2;ratioP2
48026;SDS011;50714;49.208;5.364;2023-03-26T00:09:37;3.58;;;2.03;;
48026;SDS011;50714;49.208;5.364;2023-03-26T00:19:37;4.95;;;1.88;;
48026;SDS011;50714;49.208;5.364;2023-03-26T00:29:39;2.80;;;1.73;;
48026;SDS011;50714;49.208;5.364;2023-03-26T00:39:39;8.93;;;2.45;;
48026;SDS011;50714;49.208;5.364;2023-03-26T00:49:41;6.63;;;2.47;;
48026;SDS011;50714;49.208;5.364;2023-03-26T00:59:42;4.95;;;1.80;;
48026;SDS011;50714;49.208;5.364;2023-03-26T01:09:43;3.97;;;1.75;;
48026;SDS011;50714;49.208;5.364;2023-03-26T01:30:07;4.63;;;2.00;;
48026;SDS011;50714;49.208;5.364;2023-03-26T01:40:36;4.70;;;1.85;;
48026;SDS011;50714;49.208;5.364;2023-03-26T01:50:42;6.40;;;2.20;;
48026;SDS011;50714;49.208;5.364;2023-03-26T02:11:16;3.78;;;1.75;;
48026;SDS011;50714;49.208;5.364;2023-03-26T02:21:18;4.20;;;1.85;;
48026;SDS011;50714;49.208;5.364;2023-03-26T02:31:20;6.47;;;2.20;;
48026;SDS011;50714;49.208;5.364;2023-03-26T02:41:20;3.90;;;1.75;;
48026;SDS011;50714;49.208;5.364;2023-03-26T02:51:21;4.45;;;1.92;;
48026;SDS011;50714;49.208;5.364;2023-03-26T03:01:21;5.80;;;1.90;;
48026;SDS011;50714;49.208;5.364;2023-03-26T03:11:21;5.38;;;1.70;;
48026;SDS011;50714;49.208;5.364;2023-03-26T03:21:24;4.13;;;1.70;;
48026;SDS011;50714;49.208;5.364;2023-03-26T03:31:27;4.00;;;1.83;;
48026;SDS011;50714;49.208;5.364;2023-03-26T03:41:27;3.55;;;1.50;;
48026;SDS011;50714;49.208;5.364;2023-03-26T03:51:28;5.60;;;1.70;;
48026;SDS011;50714;49.208;5.364;2023-03-26T04:01:29;3.42;;;1.60;;
48026;SDS011;50714;49.208;5.364;2023-03-26T04:11:29;2.03;;;1.20;;
48026;SDS011;50714;49.208;5.364;2023-03-26T04:21:30;5.30;;;2.08;;
48026;SDS011;50714;49.208;5.364;2023-03-26T04:31:31;2.92;;;1.40;;
48026;SDS011;50714;49.208;5.364;2023-03-26T04:41:32;3.47;;;1.35;;
48026;SDS011;50714;49.208;5.364;2023-03-26T04:51:36;3.80;;;1.27;;
48026;SDS011;50714;49.208;5.364;2023-03-26T05:01:38;3.70;;;1.38;;
48026;SDS011;50714;49.208;5.364;2023-03-26T05:11:39;2.90;;;1.25;;
48026;SDS011;50714;49.208;5.364;2023-03-26T05:21:39;4.18;;;1.67;;
48026;SDS011;50714;49.208;5.364;2023-03-26T05:31:40;2.80;;;1.30;;
48026;SDS011;50714;49.208;5.364;2023-03-26T05:41:40;2.90;;;1.50;;
48026;SDS011;50714;49.208;5.364;2023-03-26T05:51:40;2.80;;;1.40;;
48026;SDS011;50714;49.208;5.364;2023-03-26T06:01:41;3.17;;;1.63;;
48026;SDS011;50714;49.208;5.364;2023-03-26T06:11:43;1.83;;;1.00;;
48026;SDS011;50714;49.208;5.364;2023-03-26T06:21:44;1.67;;;1.23;;
48026;SDS011;50714;49.208;5.364;2023-03-26T06:31:44;2.17;;;1.10;;
48026;SDS011;50714;49.208;5.364;2023-03-26T06:41:45;3.53;;;1.55;;
48026;SDS011;50714;49.208;5.364;2023-03-26T06:51:45;4.05;;;1.38;;
48026;SDS011;50714;49.208;5.364;2023-03-26T07:01:46;4.60;;;1.70;;
48026;SDS011;50714;49.208;5.364;2023-03-26T07:11:46;2.20;;;1.17;;
48026;SDS011;50714;49.208;5.364;2023-03-26T07:21:47;2.13;;;1.15;;
48026;SDS011;50714;49.208;5.364;2023-03-26T07:31:50;2.78;;;1.23;;
48026;SDS011;50714;49.208;5.364;2023-03-26T07:52:13;1.98;;;1.00;;
48026;SDS011;50714;49.208;5.364;2023-03-26T08:13:09;3.60;;;1.48;;
48026;SDS011;50714;49.208;5.364;2023-03-26T08:22:44;2.83;;;1.30;;
48026;SDS011;50714;49.208;5.364;2023-03-26T08:32:56;3.67;;;2.00;;
48026;SDS011;50714;49.208;5.364;2023-03-26T09:45:33;2.78;;;1.38;;
48026;SDS011;50714;49.208;5.364;2023-03-26T10:16:42;3.85;;;1.80;;
48026;SDS011;50714;49.208;5.364;2023-03-26T10:57:32;3.92;;;1.50;;
48026;SDS011;50714;49.208;5.364;2023-03-26T11:07:44;3.80;;;1.42;;
48026;SDS011;50714;49.208;5.364;2023-03-26T11:38:49;4.50;;;1.70;;
48026;SDS011;50714;49.208;5.364;2023-03-26T11:48:52;2.45;;;1.23;;
48026;SDS011;50714;49.208;5.364;2023-03-26T11:59:05;3.60;;;1.60;;
48026;SDS011;50714;49.208;5.364;2023-03-26T12:09:16;3.53;;;1.58;;
48026;SDS011;50714;49.208;5.364;2023-03-26T12:19:17;4.50;;;1.20;;
48026;SDS011;50714;49.208;5.364;2023-03-26T12:29:18;2.78;;;1.60;;
48026;SDS011;50714;49.208;5.364;2023-03-26T12:39:27;2.63;;;1.20;;
48026;SDS011;50714;49.208;5.364;2023-03-26T12:49:53;2.22;;;1.00;;
48026;SDS011;50714;49.208;5.364;2023-03-26T13:20:26;3.03;;;1.48;;
48026;SDS011;50714;49.208;5.364;2023-03-26T13:30:31;1.83;;;0.80;;
48026;SDS011;50714;49.208;5.364;2023-03-26T13:50:58;1.20;;;0.70;;
48026;SDS011;50714;49.208;5.364;2023-03-26T14:01:10;2.60;;;0.90;;
48026;SDS011;50714;49.208;5.364;2023-03-26T14:11:26;1.60;;;0.82;;
48026;SDS011;50714;49.208;5.364;2023-03-26T14:21:54;1.13;;;0.77;;
48026;SDS011;50714;49.208;5.364;2023-03-26T14:42:11;2.38;;;1.33;;
48026;SDS011;50714;49.208;5.364;2023-03-26T15:44:31;1.58;;;0.70;;
48026;SDS011;50714;49.208;5.364;2023-03-26T15:54:49;1.48;;;0.70;;
48026;SDS011;50714;49.208;5.364;2023-03-26T16:04:54;1.73;;;0.65;;
48026;SDS011;50714;49.208;5.364;2023-03-26T17:28:38;8.93;;;7.18;;
48026;SDS011;50714;49.208;5.364;2023-03-26T17:39:16;10.82;;;7.45;;
48026;SDS011;50714;49.208;5.364;2023-03-26T17:49:19;5.28;;;3.63;;
48026;SDS011;50714;49.208;5.364;2023-03-26T17:59:26;6.60;;;3.83;;
48026;SDS011;50714;49.208;5.364;2023-03-26T18:09:36;4.35;;;2.53;;
48026;SDS011;50714;49.208;5.364;2023-03-26T18:20:03;3.72;;;1.88;;
48026;SDS011;50714;49.208;5.364;2023-03-26T18:40:12;1.50;;;0.95;;
48026;SDS011;50714;49.208;5.364;2023-03-26T18:50:15;1.65;;;1.00;;
48026;SDS011;50714;49.208;5.364;2023-03-26T19:00:25;0.80;;;0.50;;
48026;SDS011;50714;49.208;5.364;2023-03-26T19:10:30;2.30;;;1.33;;
48026;SDS011;50714;49.208;5.364;2023-03-26T19:20:35;3.80;;;2.10;;
48026;SDS011;50714;49.208;5.364;2023-03-26T19:30:41;6.93;;;5.03;;
48026;SDS011;50714;49.208;5.364;2023-03-26T19:40:42;5.70;;;3.95;;
48026;SDS011;50714;49.208;5.364;2023-03-26T19:50:51;4.05;;;2.78;;
48026;SDS011;50714;49.208;5.364;2023-03-26T20:00:54;3.80;;;2.45;;
48026;SDS011;50714;49.208;5.364;2023-03-26T20:10:55;4.20;;;2.63;;
48026;SDS011;50714;49.208;5.364;2023-03-26T20:20:56;8.18;;;5.75;;
48026;SDS011;50714;49.208;5.364;2023-03-26T20:30:57;5.57;;;3.40;;
48026;SDS011;50714;49.208;5.364;2023-03-26T20:40:57;1.00;;;0.90;;
48026;SDS011;50714;49.208;5.364;2023-03-26T20:50:58;0.80;;;0.80;;
48026;SDS011;50714;49.208;5.364;2023-03-26T21:01:00;0.80;;;0.80;;
48026;SDS011;50714;49.208;5.364;2023-03-26T21:11:11;0.88;;;0.88;;
48026;SDS011;50714;49.208;5.364;2023-03-26T21:31:36;0.90;;;0.80;;
48026;SDS011;50714;49.208;5.364;2023-03-26T21:41:49;0.82;;;0.82;;
48026;SDS011;50714;49.208;5.364;2023-03-26T21:51:50;0.95;;;0.95;;
48026;SDS011;50714;49.208;5.364;2023-03-26T22:01:54;1.53;;;1.30;;
48026;SDS011;50714;49.208;5.364;2023-03-26T22:12:01;2.72;;;2.22;;
48026;SDS011;50714;49.208;5.364;2023-03-26T22:22:02;3.83;;;2.63;;
48026;SDS011;50714;49.208;5.364;2023-03-26T22:32:03;3.10;;;2.38;;
48026;SDS011;50714;49.208;5.364;2023-03-26T22:42:03;4.10;;;2.93;;
48026;SDS011;50714;49.208;5.364;2023-03-26T22:52:04;5.53;;;2.63;;
48026;SDS011;50714;49.208;5.364;2023-03-26T23:02:06;5.47;;;2.97;;
48026;SDS011;50714;49.208;5.364;2023-03-26T23:12:08;3.22;;;2.50;;
48026;SDS011;50714;49.208;5.364;2023-03-26T23:22:09;3.45;;;2.40;;
48026;SDS011;50714;49.208;5.364;2023-03-26T23:32:09;3.08;;;1.92;;
48026;SDS011;50714;49.208;5.364;2023-03-26T23:42:09;3.50;;;1.92;;
48026;SDS011;50714;49.208;5.364;2023-03-26T23:52:11;4.28;;;2.33;;
